Time;durP1;ratioP1;P1;durP2;ratioP2;P2;SDS_P1;SDS_P2;PMS_P1;PMS_P2;Temp;Humidity;BMP_temperature;BMP_pressure;BME280_temperature;BME280_humidity;BME280_pressure;Samples;Min_cycle;Max_cycle;Signal;HPM_P1;HPM_P2
2021/05/04 00:01:45;;;;;;;3.23;2.50;;;9.20;58.80;;;;;;4995024;28;20060;-85
2021/05/04 00:04:11;;;;;;;4.93;2.90;;;9.20;58.70;;;;;;4990321;28;20033;-84
2021/05/04 00:06:36;;;;;;;5.53;2.87;;;9.10;58.90;;;;;;4989426;28;20383;-84
2021/05/04 00:09:06;;;;;;;3.30;2.30;;;9.10;59.10;;;;;;4994287;28;20029;-84
2021/05/04 00:11:32;;;;;;;3.63;2.80;;;9.10;59.10;;;;;;4994025;28;20026;-85
2021/05/04 00:13:58;;;;;;;5.23;2.60;;;9.10;59.00;;;;;;4993993;28;20029;-84
2021/05/04 00:16:24;;;;;;;6.30;3.30;;;9.10;59.10;;;;;;5011172;28;20030;-85
2021/05/04 00:18:50;;;;;;;4.03;3.00;;;9.00;59.20;;;;;;4993930;28;20034;-85
2021/05/04 00:21:16;;;;;;;5.37;3.67;;;9.00;59.20;;;;;;5009714;28;20402;-85
2021/05/04 00:23:41;;;;;;;5.07;3.00;;;9.00;59.40;;;;;;5009419;28;20054;-85
2021/05/04 00:26:10;;;;;;;3.17;2.70;;;9.00;59.40;;;;;;4990963;28;20029;-85
2021/05/04 00:28:36;;;;;;;4.00;2.20;;;9.00;59.40;;;;;;4995816;28;20029;-85
2021/05/04 00:31:02;;;;;;;3.27;2.03;;;9.10;59.50;;;;;;4998059;28;20022;-85
2021/05/04 00:33:27;;;;;;;5.27;2.40;;;9.00;59.40;;;;;;4997304;28;20061;-85
2021/05/04 00:35:55;;;;;;;3.00;2.20;;;9.00;59.40;;;;;;5000080;28;20485;-85
2021/05/04 00:38:21;;;;;;;2.87;1.93;;;9.00;59.50;;;;;;4994702;28;20034;-85
2021/05/04 00:40:47;;;;;;;2.53;2.20;;;9.00;59.20;;;;;;4992157;28;20124;-85
2021/05/04 00:43:13;;;;;;;3.60;2.50;;;9.00;59.00;;;;;;4993753;28;20018;-85
2021/05/04 00:45:39;;;;;;;3.20;2.40;;;9.00;59.00;;;;;;4988822;28;20041;-85
2021/05/04 00:48:05;;;;;;;3.40;2.60;;;8.90;59.10;;;;;;4988139;28;20018;-84
2021/05/04 00:50:31;;;;;;;4.73;2.50;;;9.00;59.20;;;;;;5009975;28;20486;-84
2021/05/04 00:52:56;;;;;;;6.10;3.30;;;9.00;59.10;;;;;;4982139;28;20072;-84
2021/05/04 00:55:22;;;;;;;5.70;3.17;;;9.10;59.20;;;;;;4982451;28;20558;-84
2021/05/04 00:57:55;;;;;;;3.93;2.83;;;9.10;59.80;;;;;;4991217;28;20057;-84
2021/05/04 01:00:21;;;;;;;3.95;2.80;;;9.00;59.40;;;;;;5007190;28;20029;-84
2021/05/04 01:02:47;;;;;;;4.00;2.40;;;8.90;59.40;;;;;;5010880;28;20141;-84
2021/05/04 01:05:13;;;;;;;4.87;2.60;;;8.90;59.60;;;;;;4990519;28;20056;-84
2021/05/04 01:07:40;;;;;;;3.60;2.73;;;8.80;59.70;;;;;;4994252;28;20057;-84
2021/05/04 01:10:06;;;;;;;5.77;3.10;;;8.80;60.40;;;;;;5011181;28;20037;-84
2021/05/04 01:12:32;;;;;;;3.83;2.73;;;8.70;59.80;;;;;;5007931;28;20037;-83
2021/05/04 01:14:59;;;;;;;5.37;2.73;;;8.70;60.10;;;;;;4988964;28;20382;-84
2021/05/04 01:17:25;;;;;;;2.90;2.60;;;8.60;60.00;;;;;;5009493;28;20056;-84
2021/05/04 01:20:00;;;;;;;4.77;2.80;;;8.60;60.00;;;;;;4993102;28;20026;-85
2021/05/04 01:22:27;;;;;;;5.43;3.30;;;8.60;60.30;;;;;;4993397;28;20033;-85
2021/05/04 01:24:52;;;;;;;8.07;3.10;;;8.50;60.30;;;;;;4996917;28;20385;-84
2021/05/04 01:27:18;;;;;;;8.60;2.83;;;8.50;60.20;;;;;;4990791;28;20030;-84
2021/05/04 01:29:44;;;;;;;4.57;2.90;;;8.50;60.10;;;;;;4995493;28;20054;-84
2021/05/04 01:32:11;;;;;;;3.20;2.83;;;8.50;60.10;;;;;;4991858;28;20022;-84
2021/05/04 01:34:36;;;;;;;3.23;2.77;;;8.60;60.10;;;;;;4986031;28;20031;-84
2021/05/04 01:37:03;;;;;;;6.70;3.60;;;8.50;60.20;;;;;;4993963;28;20027;-85
2021/05/04 01:39:49;;;;;;;3.50;2.73;;;8.50;60.50;;;;;;4996868;28;20585;-85
2021/05/04 01:42:17;;;;;;;3.83;2.80;;;8.40;60.60;;;;;;4997898;28;20057;-85
2021/05/04 01:44:44;;;;;;;4.00;2.70;;;8.40;60.50;;;;;;4996708;28;20173;-84
2021/05/04 01:47:10;;;;;;;2.80;2.40;;;8.40;60.50;;;;;;4996266;28;20022;-84
2021/05/04 01:49:36;;;;;;;2.80;2.57;;;8.40;60.60;;;;;;4993801;28;20034;-84
2021/05/04 01:52:17;;;;;;;3.20;2.57;;;8.40;60.60;;;;;;4993848;28;20132;-85
2021/05/04 01:54:43;;;;;;;4.10;2.90;;;8.30;60.90;;;;;;5018174;28;20030;-85
2021/05/04 01:57:09;;;;;;;3.13;2.50;;;8.30;60.90;;;;;;4995078;28;20050;-84
2021/05/04 01:59:35;;;;;;;4.03;3.30;;;8.20;61.20;;;;;;5007514;28;20038;-84
2021/05/04 02:02:00;;;;;;;5.70;2.83;;;8.20;61.20;;;;;;4997260;28;20025;-84
2021/05/04 02:04:30;;;;;;;3.63;3.27;;;8.20;61.10;;;;;;4997350;28;20033;-84
2021/05/04 02:06:56;;;;;;;4.10;2.97;;;8.20;61.80;;;;;;5015776;28;20021;-84
2021/05/04 02:09:22;;;;;;;3.87;2.90;;;8.20;61.30;;;;;;4992336;28;20038;-84
2021/05/04 02:11:48;;;;;;;4.23;2.77;;;8.30;61.10;;;;;;4995676;28;20083;-84
2021/05/04 02:14:13;;;;;;;3.57;2.90;;;8.40;60.90;;;;;;4996606;28;20069;-84
2021/05/04 02:16:39;;;;;;;3.47;2.80;;;8.40;60.80;;;;;;4997743;28;20549;-84
2021/05/04 02:19:05;;;;;;;4.33;2.83;;;8.30;60.60;;;;;;4990049;28;20495;-84
2021/05/04 02:21:31;;;;;;;2.90;2.50;;;8.20;60.70;;;;;;4996639;28;20069;-84
2021/05/04 02:23:57;;;;;;;9.53;2.70;;;8.10;60.90;;;;;;4999021;28;20033;-84
2021/05/04 02:26:23;;;;;;;4.80;3.10;;;8.10;61.00;;;;;;4994706;28;20034;-84
2021/05/04 02:28:48;;;;;;;6.43;3.03;;;8.10;60.80;;;;;;5008745;28;20116;-84
2021/05/04 02:31:15;;;;;;;5.10;3.23;;;8.10;61.10;;;;;;4994846;28;20030;-84
2021/05/04 02:33:42;;;;;;;4.67;3.53;;;8.10;61.00;;;;;;4987190;28;20036;-84
2021/05/04 02:36:09;;;;;;;3.60;3.27;;;8.10;61.00;;;;;;4997516;28;20398;-84
2021/05/04 02:38:35;;;;;;;3.83;2.97;;;8.00;61.20;;;;;;4996015;28;20037;-84
2021/05/04 02:41:03;;;;;;;4.53;2.77;;;8.00;61.30;;;;;;4995889;28;20081;-85
2021/05/04 02:43:29;;;;;;;5.13;2.70;;;8.00;61.30;;;;;;4995389;28;20041;-85
2021/05/04 02:45:55;;;;;;;4.50;2.80;;;8.00;61.40;;;;;;4992131;28;21458;-85
2021/05/04 02:48:21;;;;;;;4.57;3.47;;;8.10;61.20;;;;;;4991413;28;20095;-85
2021/05/04 02:50:49;;;;;;;7.03;3.47;;;8.00;60.70;;;;;;4989567;28;20490;-84
2021/05/04 02:53:16;;;;;;;4.10;2.70;;;7.90;60.90;;;;;;4993070;28;20029;-85
2021/05/04 02:55:42;;;;;;;4.80;3.23;;;8.00;61.10;;;;;;4990809;28;20027;-85
2021/05/04 02:58:08;;;;;;;5.30;3.10;;;8.00;60.80;;;;;;5006824;28;20038;-85
2021/05/04 03:00:35;;;;;;;4.40;3.40;;;7.90;60.70;;;;;;5011307;28;20037;-85
2021/05/04 03:03:00;;;;;;;3.80;2.93;;;7.90;61.20;;;;;;4995443;28;20061;-84
2021/05/04 03:05:26;;;;;;;3.33;2.53;;;7.90;61.20;;;;;;4995537;28;20073;-84
2021/05/04 03:07:52;;;;;;;3.77;2.60;;;8.00;61.10;;;;;;4994617;28;20475;-84
2021/05/04 03:10:18;;;;;;;6.17;2.97;;;8.00;60.80;;;;;;5011375;28;20124;-84
2021/05/04 03:12:44;;;;;;;4.27;3.40;;;8.00;60.60;;;;;;4992124;28;20511;-84
2021/05/04 03:15:19;;;;;;;6.47;3.10;;;8.00;60.70;;;;;;4990862;28;20025;-84
2021/05/04 03:17:49;;;;;;;4.27;2.83;;;7.90;61.00;;;;;;4993212;28;20438;-84
2021/05/04 03:20:14;;;;;;;3.67;2.93;;;7.80;61.10;;;;;;5012290;28;20065;-84
2021/05/04 03:22:40;;;;;;;7.27;3.23;;;7.80;61.20;;;;;;4988645;28;20926;-85
2021/05/04 03:25:06;;;;;;;4.00;3.33;;;7.70;61.30;;;;;;4995219;28;20029;-84
2021/05/04 03:27:32;;;;;;;4.53;2.97;;;7.60;61.70;;;;;;4994582;28;20034;-84
2021/05/04 03:29:58;;;;;;;3.97;3.07;;;7.50;61.90;;;;;;4998460;28;20034;-84
2021/05/04 03:32:23;;;;;;;4.23;2.93;;;7.50;62.10;;;;;;4990763;28;20065;-84
2021/05/04 03:34:49;;;;;;;4.93;3.43;;;7.50;62.00;;;;;;5013129;28;20030;-84
2021/05/04 03:37:15;;;;;;;6.07;3.40;;;7.50;62.00;;;;;;4993787;28;20062;-84
2021/05/04 03:39:41;;;;;;;4.00;3.20;;;7.50;62.20;;;;;;4992962;28;20121;-84
2021/05/04 03:42:06;;;;;;;6.37;3.50;;;7.40;62.20;;;;;;4984759;28;20129;-84
2021/05/04 03:44:32;;;;;;;5.30;3.27;;;7.40;62.30;;;;;;4995001;28;20028;-84
2021/05/04 03:46:59;;;;;;;8.20;3.23;;;7.40;62.50;;;;;;5009101;28;20045;-84
2021/05/04 03:49:25;;;;;;;4.47;3.37;;;7.30;62.50;;;;;;4994904;28;20391;-85
2021/05/04 03:51:50;;;;;;;4.10;3.70;;;7.30;62.60;;;;;;4995086;28;20026;-84
2021/05/04 03:54:16;;;;;;;4.37;3.23;;;7.40;62.40;;;;;;4990973;28;20037;-85
2021/05/04 03:56:42;;;;;;;6.07;3.70;;;7.30;62.40;;;;;;4996523;28;20053;-86
2021/05/04 03:59:07;;;;;;;5.47;3.20;;;7.20;62.70;;;;;;4996926;28;20052;-86
2021/05/04 04:01:35;;;;;;;3.90;3.27;;;7.20;62.90;;;;;;4994474;28;20046;-86
2021/05/04 04:04:01;;;;;;;5.10;3.60;;;7.10;62.80;;;;;;4988302;28;20026;-85
2021/05/04 04:06:27;;;;;;;4.43;2.93;;;7.20;63.10;;;;;;4988183;28;20082;-83
2021/05/04 04:08:52;;;;;;;4.60;3.17;;;7.20;63.00;;;;;;4994533;28;20085;-85
2021/05/04 04:11:18;;;;;;;5.43;3.00;;;7.20;63.10;;;;;;5003175;28;20433;-85
2021/05/04 04:13:44;;;;;;;5.80;3.23;;;7.20;63.00;;;;;;5008666;28;20046;-84
2021/05/04 04:16:15;;;;;;;4.90;3.07;;;7.20;62.90;;;;;;4991614;28;20030;-84
2021/05/04 04:18:41;;;;;;;5.83;3.20;;;7.10;62.90;;;;;;4987137;28;20037;-84
2021/05/04 04:21:07;;;;;;;4.80;2.97;;;7.20;62.90;;;;;;4992398;28;20486;-84
2021/05/04 04:23:32;;;;;;;5.67;2.80;;;7.10;62.90;;;;;;4995863;28;20042;-85
2021/05/04 04:25:58;;;;;;;6.20;3.10;;;7.20;62.90;;;;;;4989552;28;20104;-85
2021/05/04 04:28:24;;;;;;;3.90;2.90;;;7.20;62.90;;;;;;4991875;28;20022;-83
2021/05/04 04:30:50;;;;;;;4.23;2.93;;;7.20;63.00;;;;;;4994871;28;20025;-83
2021/05/04 04:33:21;;;;;;;5.13;3.00;;;7.30;62.90;;;;;;4998316;28;20036;-83
2021/05/04 04:35:47;;;;;;;4.20;3.10;;;7.40;62.70;;;;;;4993616;28;20064;-84
2021/05/04 04:38:13;;;;;;;11.43;3.80;;;7.40;62.50;;;;;;5011479;28;20486;-83
2021/05/04 04:40:38;;;;;;;4.30;3.50;;;7.40;62.50;;;;;;4992769;28;20414;-83
2021/05/04 04:43:04;;;;;;;5.20;3.50;;;7.40;62.50;;;;;;4996629;28;20026;-83
2021/05/04 04:45:30;;;;;;;3.60;2.97;;;7.50;62.60;;;;;;4990434;28;20030;-83
2021/05/04 04:47:56;;;;;;;6.30;3.50;;;7.50;62.40;;;;;;5010756;28;20415;-83
2021/05/04 04:50:21;;;;;;;7.23;3.77;;;7.40;62.30;;;;;;4992965;28;20120;-84
2021/05/04 04:52:47;;;;;;;4.70;3.60;;;7.30;62.50;;;;;;5010492;28;20165;-84
2021/05/04 04:55:13;;;;;;;6.57;3.53;;;7.30;62.60;;;;;;4988263;28;20563;-84
2021/05/04 04:57:39;;;;;;;6.67;3.23;;;7.40;62.80;;;;;;4987238;28;20422;-84
2021/05/04 05:00:05;;;;;;;4.87;3.20;;;7.30;62.70;;;;;;4993290;28;20487;-84
2021/05/04 05:02:31;;;;;;;8.27;3.47;;;7.40;62.80;;;;;;4993483;28;20029;-84
2021/05/04 05:04:57;;;;;;;9.17;4.23;;;7.50;62.70;;;;;;4992664;28;20037;-84
2021/05/04 05:07:27;;;;;;;16.43;4.40;;;7.50;62.70;;;;;;4987658;28;20076;-84
2021/05/04 05:09:53;;;;;;;8.27;6.03;;;7.60;62.70;;;;;;4988184;28;20034;-84
2021/05/04 05:12:19;;;;;;;8.77;4.90;;;7.60;62.70;;;;;;4983619;28;20108;-84
2021/05/04 05:14:45;;;;;;;7.70;4.63;;;7.50;62.80;;;;;;4993407;28;20113;-83
2021/05/04 05:17:11;;;;;;;6.47;4.90;;;7.50;62.90;;;;;;4993655;28;20029;-84
2021/05/04 05:19:37;;;;;;;7.80;4.70;;;7.60;63.10;;;;;;4993039;28;20146;-84
2021/05/04 05:22:03;;;;;;;8.53;4.47;;;7.60;63.20;;;;;;4992065;28;20022;-84
2021/05/04 05:24:29;;;;;;;7.63;4.53;;;7.60;63.20;;;;;;4992698;28;20061;-84
2021/05/04 05:26:55;;;;;;;10.13;4.13;;;7.70;63.00;;;;;;5009287;28;20061;-84
2021/05/04 05:29:21;;;;;;;11.70;4.57;;;7.70;63.00;;;;;;4997179;28;20429;-83
2021/05/04 05:31:47;;;;;;;12.77;5.00;;;7.70;63.00;;;;;;5011157;28;20100;-84
2021/05/04 05:34:13;;;;;;;7.90;4.33;;;7.70;63.00;;;;;;4995185;28;20021;-83
2021/05/04 05:36:40;;;;;;;8.80;4.23;;;7.80;63.10;;;;;;4996426;28;20063;-84
2021/05/04 05:39:07;;;;;;;6.30;4.13;;;7.80;62.90;;;;;;5014213;28;20505;-83
2021/05/04 05:41:33;;;;;;;8.33;4.23;;;7.80;62.80;;;;;;4993066;28;20511;-83
2021/05/04 05:43:58;;;;;;;13.43;5.10;;;7.80;62.90;;;;;;4989842;28;20046;-82
2021/05/04 05:46:24;;;;;;;8.67;5.40;;;7.90;63.00;;;;;;4993016;28;20033;-82
2021/05/04 05:48:51;;;;;;;8.03;5.63;;;8.00;62.80;;;;;;4989109;28;20030;-83
2021/05/04 05:51:16;;;;;;;17.30;5.07;;;8.00;62.60;;;;;;4993832;28;20037;-82
2021/05/04 05:53:42;;;;;;;9.47;4.37;;;8.10;62.50;;;;;;4992582;28;20371;-82
2021/05/04 05:56:08;;;;;;;7.27;4.87;;;8.10;62.30;;;;;;5010698;28;20475;-82
2021/05/04 05:58:34;;;;;;;7.90;4.43;;;8.10;62.40;;;;;;4993022;28;20410;-82
2021/05/04 06:01:00;;;;;;;8.53;4.67;;;8.00;62.40;;;;;;4992533;28;20022;-82
2021/05/04 06:03:27;;;;;;;8.87;5.43;;;8.10;62.40;;;;;;5009277;28;20397;-82
2021/05/04 06:05:53;;;;;;;8.23;4.33;;;8.10;63.10;;;;;;4991883;28;20033;-83
2021/05/04 06:08:19;;;;;;;7.33;4.80;;;8.20;62.50;;;;;;5018287;28;20485;-83
2021/05/04 06:10:47;;;;;;;4.33;3.23;;;8.20;62.30;;;;;;4988055;28;20402;-82
2021/05/04 06:13:12;;;;;;;6.70;3.93;;;8.20;62.20;;;;;;4992337;28;20048;-82
2021/05/04 06:15:43;;;;;;;8.50;4.70;;;8.30;62.00;;;;;;4996126;28;20483;-82
2021/05/04 06:18:09;;;;;;;7.43;4.47;;;8.40;62.00;;;;;;5004046;28;20073;-82
2021/05/04 06:20:36;;;;;;;7.17;3.80;;;8.50;61.60;;;;;;4994282;28;20502;-82
2021/05/04 06:23:03;;;;;;;6.63;3.70;;;8.60;61.30;;;;;;5013089;28;20057;-82
2021/05/04 06:25:30;;;;;;;3.77;3.20;;;8.60;61.30;;;;;;4993966;28;20498;-82
2021/05/04 06:28:00;;;;;;;6.17;3.33;;;8.60;61.20;;;;;;4978461;28;20137;-82
2021/05/04 06:30:27;;;;;;;7.20;3.77;;;8.80;61.00;;;;;;4985068;28;20033;-82
2021/05/04 06:32:53;;;;;;;7.10;4.27;;;8.90;60.60;;;;;;4993114;28;20928;-83
2021/05/04 06:35:20;;;;;;;8.67;4.10;;;8.90;60.40;;;;;;4989627;28;20028;-83
2021/05/04 06:37:48;;;;;;;4.30;3.40;;;8.90;60.50;;;;;;4995615;28;20080;-83
2021/05/04 06:40:15;;;;;;;8.07;4.63;;;8.90;60.30;;;;;;4996757;28;20052;-84
2021/05/04 06:42:41;;;;;;;8.13;3.97;;;8.90;60.20;;;;;;4975701;28;20491;-83
2021/05/04 06:45:07;;;;;;;8.67;4.13;;;9.00;60.00;;;;;;4975678;28;20032;-83
2021/05/04 06:47:34;;;;;;;5.37;3.10;;;9.00;59.90;;;;;;4988089;28;20030;-83
2021/05/04 06:50:01;;;;;;;7.83;3.33;;;9.10;59.80;;;;;;4977236;28;20105;-83
2021/05/04 06:52:27;;;;;;;4.90;3.70;;;9.20;59.60;;;;;;4971903;28;20035;-83
2021/05/04 06:54:55;;;;;;;12.07;4.70;;;9.20;59.60;;;;;;4975461;28;20368;-83
2021/05/04 06:57:25;;;;;;;6.23;4.50;;;9.20;59.60;;;;;;4973762;28;20391;-83
2021/05/04 06:59:51;;;;;;;5.87;3.77;;;9.30;59.70;;;;;;4986768;28;20030;-84
2021/05/04 07:02:18;;;;;;;4.20;2.90;;;9.50;59.70;;;;;;4976466;28;20518;-83
2021/05/04 07:04:44;;;;;;;7.23;3.50;;;9.70;59.60;;;;;;4966100;28;20031;-83
2021/05/04 07:07:10;;;;;;;5.97;3.60;;;10.00;58.70;;;;;;4964927;28;20030;-83
2021/05/04 07:09:35;;;;;;;7.17;3.60;;;10.10;58.50;;;;;;4974545;28;20034;-83
2021/05/04 07:12:03;;;;;;;4.77;3.43;;;10.30;58.50;;;;;;4981171;28;20391;-83
2021/05/04 07:14:28;;;;;;;4.67;3.10;;;10.40;58.50;;;;;;4989411;28;20109;-83
2021/05/04 07:16:54;;;;;;;6.50;3.10;;;10.60;58.50;;;;;;4974794;28;20139;-83
2021/05/04 07:19:20;;;;;;;3.60;2.93;;;10.80;58.10;;;;;;4972740;28;20037;-83
2021/05/04 07:21:46;;;;;;;4.17;2.70;;;11.00;57.60;;;;;;4975594;28;20030;-83
2021/05/04 07:24:13;;;;;;;9.43;2.93;;;11.20;57.30;;;;;;4978082;28;20030;-83
2021/05/04 07:26:39;;;;;;;8.53;2.67;;;11.40;56.80;;;;;;4972693;28;20046;-83
2021/05/04 07:29:05;;;;;;;3.37;2.60;;;11.60;56.10;;;;;;4991941;28;20030;-83
2021/05/04 07:31:31;;;;;;;3.90;2.40;;;11.90;55.60;;;;;;4975229;28;20434;-82
2021/05/04 07:33:57;;;;;;;4.40;2.87;;;12.00;54.20;;;;;;4974613;28;20022;-83
2021/05/04 07:36:25;;;;;;;7.33;2.80;;;12.00;53.60;;;;;;4989726;28;20447;-83
2021/05/04 07:38:51;;;;;;;4.73;2.77;;;12.30;53.70;;;;;;4992801;28;20101;-83
2021/05/04 07:41:16;;;;;;;3.70;2.53;;;12.50;53.30;;;;;;4979778;28;20534;-82
2021/05/04 07:43:42;;;;;;;4.13;2.60;;;12.60;52.90;;;;;;4994074;28;20076;-82
2021/05/04 07:46:08;;;;;;;7.20;2.50;;;12.70;52.70;;;;;;5011990;28;20423;-83
2021/05/04 07:48:43;;;;;;;4.97;2.60;;;12.80;52.30;;;;;;5009401;28;20032;-83
2021/05/04 07:51:09;;;;;;;3.40;2.10;;;13.00;51.50;;;;;;4993500;28;20371;-83
2021/05/04 07:53:35;;;;;;;8.10;2.40;;;13.20;51.50;;;;;;5001755;28;20029;-83
2021/05/04 07:56:01;;;;;;;3.67;2.43;;;13.40;51.30;;;;;;4990073;28;20049;-82
2021/05/04 07:58:28;;;;;;;4.87;2.30;;;13.60;51.40;;;;;;5009135;28;20041;-82
2021/05/04 08:00:54;;;;;;;5.17;2.47;;;13.70;50.80;;;;;;4994826;28;20087;-83
2021/05/04 08:03:22;;;;;;;5.07;2.43;;;13.90;50.50;;;;;;4994801;28;20497;-83
2021/05/04 08:05:50;;;;;;;3.70;2.47;;;14.10;49.50;;;;;;5012104;28;20022;-83
2021/05/04 08:08:28;;;;;;;7.17;2.20;;;14.30;49.00;;;;;;4994536;28;20039;-83
2021/05/04 08:10:54;;;;;;;4.50;2.27;;;14.50;48.40;;;;;;4987148;28;20032;-83
2021/05/04 08:13:21;;;;;;;3.37;2.53;;;14.60;48.50;;;;;;5003876;28;20112;-83
2021/05/04 08:15:49;;;;;;;5.30;2.60;;;14.80;47.90;;;;;;5010789;28;20026;-83
2021/05/04 08:18:16;;;;;;;5.70;2.50;;;14.90;47.70;;;;;;4991091;28;20029;-83
2021/05/04 08:20:52;;;;;;;3.27;2.30;;;15.00;47.50;;;;;;4992842;28;20065;-84
2021/05/04 08:23:18;;;;;;;6.23;2.53;;;15.00;46.50;;;;;;4988077;28;20034;-83
2021/05/04 08:25:44;;;;;;;4.87;3.07;;;15.00;46.40;;;;;;4994010;28;20033;-83
2021/05/04 08:28:10;;;;;;;5.17;2.47;;;15.10;46.30;;;;;;5011933;28;20022;-83
2021/05/04 08:30:36;;;;;;;6.43;2.57;;;15.30;46.10;;;;;;4992131;28;20026;-83
2021/05/04 08:33:03;;;;;;;4.73;2.33;;;15.40;46.00;;;;;;4990336;28;20019;-83
2021/05/04 08:35:29;;;;;;;6.37;2.83;;;15.50;46.10;;;;;;5008813;28;20033;-83
2021/05/04 08:37:56;;;;;;;6.97;3.13;;;15.60;45.70;;;;;;4994541;28;20050;-83
2021/05/04 08:40:23;;;;;;;5.82;2.70;;;15.80;45.20;;;;;;4991322;28;20033;-82
2021/05/04 08:42:48;;;;;;;4.75;2.72;;;15.90;44.70;;;;;;4984560;28;20081;-83
2021/05/04 08:45:16;;;;;;;2.33;1.83;;;16.10;43.80;;;;;;4994809;28;20084;-83
2021/05/04 08:47:52;;;;;;;3.85;2.30;;;16.10;42.90;;;;;;4986171;28;20034;-83
2021/05/04 08:50:20;;;;;;;4.27;2.27;;;16.00;42.90;;;;;;4989055;28;20073;-82
2021/05/04 08:52:47;;;;;;;4.10;2.28;;;16.10;43.10;;;;;;4992320;28;20056;-83
2021/05/04 08:55:16;;;;;;;3.85;2.40;;;16.30;43.00;;;;;;4983043;28;20029;-82
2021/05/04 08:57:45;;;;;;;4.40;2.22;;;16.30;42.60;;;;;;5005469;28;20442;-83
2021/05/04 09:00:12;;;;;;;7.72;2.55;;;16.40;42.40;;;;;;4991211;28;20033;-83
2021/05/04 09:03:09;;;;;;;5.72;2.20;;;16.50;42.40;;;;;;5006938;28;20034;-83
2021/05/04 09:05:48;;;;;;;4.60;2.10;;;16.60;42.00;;;;;;5007675;28;20036;-83
2021/05/04 09:21:40;;;;;;;7.00;2.58;;;16.90;41.20;;;;;;5011587;28;20029;-83
2021/05/04 09:24:24;;;;;;;5.22;2.28;;;17.00;41.30;;;;;;4993519;28;20037;-83
2021/05/04 09:27:01;;;;;;;4.65;2.35;;;17.00;41.20;;;;;;4998755;28;20117;-82
2021/05/04 09:29:29;;;;;;;4.38;2.72;;;17.00;40.90;;;;;;4991721;28;20026;-83
2021/05/04 09:32:09;;;;;;;6.22;2.40;;;17.10;41.00;;;;;;4993998;28;20384;-83
2021/05/04 09:34:46;;;;;;;5.18;2.33;;;17.20;41.00;;;;;;4992903;28;20030;-83
2021/05/04 09:37:26;;;;;;;6.50;2.63;;;17.30;41.40;;;;;;5011348;28;20479;-83
2021/05/04 09:39:53;;;;;;;4.40;2.50;;;17.50;41.20;;;;;;4988243;28;20052;-83
2021/05/04 09:42:19;;;;;;;3.60;2.30;;;17.70;40.90;;;;;;4993084;28;20093;-83
2021/05/04 09:44:47;;;;;;;4.65;2.40;;;17.90;40.50;;;;;;4999794;28;20399;-82
2021/05/04 09:47:22;;;;;;;8.85;1.90;;;18.00;39.90;;;;;;4997499;28;20030;-83
2021/05/04 09:49:49;;;;;;;4.07;1.70;;;18.10;39.10;;;;;;4990502;28;20121;-85
2021/05/04 09:52:37;;;;;;;4.05;2.70;;;18.20;39.10;;;;;;5013520;28;20022;-85
2021/05/04 09:55:10;;;;;;;3.42;1.80;;;18.40;39.20;;;;;;4996160;28;20030;-85
2021/05/04 09:57:39;;;;;;;5.88;1.70;;;18.60;38.60;;;;;;4993358;28;20062;-85
2021/05/04 10:00:10;;;;;;;3.50;1.70;;;18.70;38.00;;;;;;4995375;28;20044;-85
2021/05/04 10:02:38;;;;;;;2.00;1.40;;;18.90;37.20;;;;;;4996943;28;20041;-85
2021/05/04 10:05:05;;;;;;;4.13;1.38;;;18.90;36.60;;;;;;5000248;28;20026;-84
2021/05/04 10:07:32;;;;;;;4.57;1.15;;;19.00;36.00;;;;;;5011128;28;20037;-85
2021/05/04 10:10:02;;;;;;;2.13;1.27;;;19.20;35.70;;;;;;4995860;28;20479;-84
2021/05/04 10:12:29;;;;;;;2.45;1.70;;;19.20;34.70;;;;;;4992088;28;20033;-84
2021/05/04 10:15:00;;;;;;;3.00;1.30;;;19.30;34.80;;;;;;4996628;28;20018;-84
2021/05/04 10:17:30;;;;;;;1.95;1.42;;;19.50;34.40;;;;;;4991729;28;20050;-84
2021/05/04 10:19:56;;;;;;;3.55;1.55;;;19.50;34.00;;;;;;4997208;28;20026;-84
2021/05/04 10:22:22;;;;;;;4.40;1.15;;;19.60;33.70;;;;;;5007068;28;20034;-85
2021/05/04 10:24:50;;;;;;;3.28;1.40;;;19.70;33.10;;;;;;4995166;28;20032;-85
2021/05/04 10:27:19;;;;;;;4.03;1.40;;;19.60;32.80;;;;;;5014565;28;20026;-84
2021/05/04 10:29:49;;;;;;;2.55;1.10;;;19.80;32.70;;;;;;4999471;28;20451;-85
2021/05/04 10:32:15;;;;;;;6.10;1.98;;;19.80;32.50;;;;;;4996682;28;20034;-84
2021/05/04 10:34:41;;;;;;;5.53;1.80;;;19.80;32.40;;;;;;5008307;28;20467;-84
2021/05/04 10:37:13;;;;;;;3.72;1.27;;;19.90;32.10;;;;;;4992307;28;20441;-84
2021/05/04 10:39:39;;;;;;;2.97;1.70;;;19.90;31.70;;;;;;4989100;28;20030;-84
2021/05/04 10:42:10;;;;;;;1.70;1.08;;;19.90;31.70;;;;;;4982025;28;20049;-84
2021/05/04 10:44:55;;;;;;;2.78;1.48;;;20.00;31.50;;;;;;4977724;28;20098;-84
2021/05/04 10:47:42;;;;;;;4.22;1.20;;;20.00;31.50;;;;;;4979080;28;20026;-84
2021/05/04 10:50:09;;;;;;;4.78;1.00;;;20.00;31.30;;;;;;4978853;28;20038;-84
2021/05/04 10:52:51;;;;;;;3.78;0.85;;;20.10;31.70;;;;;;4979382;28;20316;-84
2021/05/04 10:55:22;;;;;;;3.80;1.08;;;20.20;31.70;;;;;;4988734;28;20050;-84
2021/05/04 10:58:14;;;;;;;3.45;1.30;;;20.30;31.30;;;;;;4973591;28;20783;-85
2021/05/04 11:00:51;;;;;;;6.55;1.20;;;20.30;30.80;;;;;;4971491;28;20461;-84
2021/05/04 11:03:29;;;;;;;5.05;1.15;;;20.30;30.80;;;;;;4976869;28;20634;-85
2021/05/04 11:05:56;;;;;;;1.88;1.00;;;20.30;30.50;;;;;;4976425;28;20129;-84
2021/05/04 11:08:21;;;;;;;3.60;1.20;;;20.40;30.90;;;;;;4970553;28;20030;-85
2021/05/04 11:11:21;;;;;;;3.03;1.10;;;20.50;30.70;;;;;;4993947;28;20030;-85
2021/05/04 11:13:48;;;;;;;2.70;1.17;;;20.50;30.70;;;;;;4991346;28;20585;-84
2021/05/04 11:16:37;;;;;;;1.75;1.00;;;20.60;30.60;;;;;;4996516;28;20025;-83
2021/05/04 11:19:05;;;;;;;2.83;1.10;;;20.70;30.00;;;;;;4979346;28;20177;-84
2021/05/04 11:21:38;;;;;;;21.33;1.15;;;20.60;30.00;;;;;;4980514;28;20389;-84
2021/05/04 11:24:11;;;;;;;2.90;1.30;;;20.60;29.90;;;;;;4977999;28;20061;-85
2021/05/04 11:26:50;;;;;;;3.85;1.30;;;20.60;30.00;;;;;;4992271;28;20069;-85
2021/05/04 11:29:18;;;;;;;4.70;1.20;;;20.60;30.50;;;;;;4993183;28;20068;-84
2021/05/04 11:31:46;;;;;;;5.63;1.98;;;20.70;30.40;;;;;;4976578;28;20053;-85
2021/05/04 11:34:43;;;;;;;2.30;1.00;;;20.70;30.40;;;;;;4976118;28;20491;-85
2021/05/04 11:37:36;;;;;;;2.55;0.77;;;20.70;30.00;;;;;;4994242;28;20023;-85
2021/05/04 11:40:14;;;;;;;2.63;1.10;;;20.70;29.90;;;;;;4976209;28;20089;-85
2021/05/04 11:42:42;;;;;;;4.13;1.13;;;20.60;29.60;;;;;;4997939;28;20448;-85
2021/05/04 11:45:29;;;;;;;10.95;1.20;;;20.70;29.70;;;;;;4975759;28;20121;-85
2021/05/04 11:48:10;;;;;;;5.25;0.98;;;20.80;29.70;;;;;;4972691;28;20488;-85
2021/05/04 11:50:38;;;;;;;5.22;1.00;;;20.80;29.40;;;;;;4976200;28;20038;-84
2021/05/04 11:53:16;;;;;;;4.70;1.42;;;20.80;29.50;;;;;;4993701;28;20022;-84
2021/05/04 11:55:43;;;;;;;2.75;0.80;;;20.80;29.10;;;;;;4973941;28;20030;-84
2021/05/04 11:58:23;;;;;;;2.42;0.88;;;20.90;29.00;;;;;;4971872;28;20042;-84
2021/05/04 12:01:17;;;;;;;2.08;0.90;;;20.90;28.40;;;;;;4974861;28;20116;-84
2021/05/04 12:03:51;;;;;;;5.55;1.90;;;20.90;28.00;;;;;;4976502;28;20034;-84
2021/05/04 12:06:16;;;;;;;1.50;0.90;;;21.00;28.10;;;;;;4979257;28;20478;-84
2021/05/04 12:08:42;;;;;;;2.95;0.90;;;21.00;27.80;;;;;;4971643;28;20034;-84
2021/05/04 12:11:08;;;;;;;20.08;1.65;;;21.10;28.00;;;;;;4977278;28;20117;-84
2021/05/04 12:13:33;;;;;;;2.97;1.10;;;21.10;27.80;;;;;;4986556;28;20034;-83
2021/05/04 12:16:02;;;;;;;4.63;1.02;;;21.00;27.40;;;;;;4996275;28;20022;-83
2021/05/04 12:18:32;;;;;;;1.58;0.90;;;21.00;27.20;;;;;;5013829;28;20613;-84
2021/05/04 12:21:03;;;;;;;1.50;0.95;;;21.00;27.00;;;;;;4982163;28;20060;-83
2021/05/04 12:23:41;;;;;;;2.92;0.80;;;20.90;27.10;;;;;;4995071;28;20479;-84
2021/05/04 12:26:09;;;;;;;2.72;1.25;;;20.90;27.30;;;;;;4979738;28;20026;-84
2021/05/04 12:28:38;;;;;;;2.15;0.80;;;20.90;27.30;;;;;;4987177;28;20030;-84
2021/05/04 12:31:20;;;;;;;2.22;0.90;;;21.00;27.20;;;;;;4990454;28;20030;-84
2021/05/04 12:33:51;;;;;;;3.35;1.10;;;21.10;27.10;;;;;;4988815;28;20080;-83
2021/05/04 12:36:34;;;;;;;3.05;1.17;;;21.20;27.10;;;;;;4973383;28;20240;-83
2021/05/04 12:39:05;;;;;;;2.05;0.95;;;21.30;26.90;;;;;;4987325;28;20030;-83
2021/05/04 12:41:33;;;;;;;3.58;0.70;;;21.30;27.00;;;;;;4978558;28;20042;-83
2021/05/04 12:46:33;;;;;;;2.60;1.30;;;21.20;27.20;;;;;;5007145;28;20026;-83
2021/05/04 12:49:02;;;;;;;1.88;1.00;;;21.20;27.20;;;;;;4987283;28;20034;-83
2021/05/04 12:51:33;;;;;;;2.22;0.80;;;21.10;27.40;;;;;;5004772;28;20117;-84
2021/05/04 12:54:11;;;;;;;3.08;0.93;;;21.10;27.30;;;;;;4990022;28;20085;-84
2021/05/04 12:56:38;;;;;;;2.63;0.95;;;21.10;27.10;;;;;;4987591;28;20033;-84
2021/05/04 12:59:08;;;;;;;3.65;0.95;;;20.90;27.50;;;;;;4999477;28;20116;-84
2021/05/04 13:01:43;;;;;;;2.75;1.00;;;20.90;27.40;;;;;;4990499;28;20054;-84
2021/05/04 13:04:33;;;;;;;3.97;1.67;;;20.90;27.30;;;;;;5009551;28;20029;-84
2021/05/04 13:07:03;;;;;;;3.17;1.00;;;20.90;27.50;;;;;;4993948;28;20482;-83
2021/05/04 13:32:26;;;;;;;4.75;1.23;;;20.70;28.10;;;;;;4959722;28;20050;-83
2021/05/04 13:34:55;;;;;;;3.05;1.08;;;20.70;28.20;;;;;;4988624;28;20038;-83
2021/05/04 13:47:58;;;;;;;4.72;1.27;;;20.70;28.20;;;;;;5005192;28;20037;-83
2021/05/04 13:50:24;;;;;;;3.13;1.13;;;20.70;28.00;;;;;;4986490;28;20042;-83